KLWT/LWT METAR and TAF weather

Enter ICAO airport designator
Station Type Date Time Source
KLWT METAR 2020/07/10 16:54 UTC NOAA

KLWT 101654Z AUTO 00000KT 10SM SCT045 BKN075 BKN085 13/10 A3012 RMK AO2 RAE49 SLP177 P0002 T01330100


Station Type Date Time Source
KLWT Decoded METAR 2020/07/10 16:54 UTC NOAA

LEWISTOWN MUNICIPAL AIRPORT , MT, United States (KLWT) 47-03N 109-27W
Jul 10, 2020 - 12:54 PM EDT / 2020.07.10 1654 UTC
Wind: Calm:0
Visibility: 10 mile(s):0
Sky conditions: mostly cloudy
Precipitation last hour: 0.02 inches
Temperature: 55.9 F (13.3 C)
Dew Point: 50.0 F (10.0 C)
Relative Humidity: 80%
Pressure (altimeter): 30.12 in. Hg (1019 hPa)
ob: KLWT 101654Z AUTO 00000KT 10SM SCT045 BKN075 BKN085 13/10 A3012 RMK AO2 RAE49 SLP177 P0002 T01330100
cycle: 17

Station Type Date Time Source
KLWT TAF 2020/07/10 12:57 UTC NOAA

TAF KLWT 101154Z 1012/1112 VRB05KT P6SM FEW080 FEW100
FM101500 30015G25KT P6SM VCSH SCT080 BKN100
TEMPO 1016/1018 5SM -SHRA BKN035 OVC070
FM101900 29014G21KT P6SM FEW120
FM102100 30015G23KT P6SM FEW050 FEW200
FM110300 24009KT P6SM SKC

Example: see airport list